Terminal Aerodrome Forecast
Issued by NWS

Home | Current Version | Previous Version | Text Only | Print | Product List | Glossary On
Versions: 1 2 3 4 5 6 7 8 9 10 11 12 13 14 15 16 17 18 19 20 21 22 23 24 25 26 27 28 29 30 31 32 33 34 35 36
000
FTAK31 PANC 251740
TAFAAQ
TAF
PAAQ 251740Z 2518/2618 VRB04KT P6SM -SHRA SCT035 BKN045
     FM260000 15005KT P6SM -SHRA SCT025 BKN035
     FM260900 VRB03KT P6SM VCSH SCT035 OVC050
     FM261600 35004KT P6SM SCT050 BKN100=

USA.gov is the U.S. government's official web portal to all federal, state and local government web resources and services.